Terminal Aerodrome Forecast
Issued by NWS Glasgow, MT

Home | Current Version | Previous Version | Text Only | Print | Product List | Glossary On
Versions: 1 2 3 4 5 6 7 8 9 10 11 12
555
FTUS45 KGGW 201120
TAFGGW
TAF
KGGW 201120Z 2012/2112 26011G23KT P6SM BKN100 WS020/27045KT
     FM201600 27014KT P6SM BKN110
     FM210700 33013KT P6SM SCT080=

USA.gov is the U.S. government's official web portal to all federal, state and local government web resources and services.